Time;durP1;ratioP1;P1;durP2;ratioP2;P2;SDS_P1;SDS_P2;PMS_P1;PMS_P2;Temp;Humidity;BMP_temperature;BMP_pressure;BME280_temperature;BME280_humidity;BME280_pressure;Samples;Min_cycle;Max_cycle;Signal;HPM_P1;HPM_P2
2023/04/15 00:00:34;;;;;;;9.80;3.78;;;;;;;1.06;100.00;92922.88;4969898;28;20047;-62
2023/04/15 00:03:01;;;;;;;8.40;3.25;;;;;;;1.04;100.00;92919.78;4970437;28;20055;-67
2023/04/15 00:05:31;;;;;;;8.38;3.83;;;;;;;1.01;100.00;92917.88;4989887;28;20038;-62
2023/04/15 00:07:58;;;;;;;7.63;3.30;;;;;;;0.96;100.00;92916.28;4972678;28;20554;-60
2023/04/15 00:10:25;;;;;;;7.90;3.38;;;;;;;0.98;100.00;92918.59;4988778;28;20099;-61
2023/04/15 00:12:52;;;;;;;7.60;3.40;;;;;;;1.01;100.00;92909.75;4989412;28;20496;-61
2023/04/15 00:15:19;;;;;;;9.25;3.35;;;;;;;0.95;100.00;92908.56;4989216;28;20046;-60
2023/04/15 00:17:45;;;;;;;199.35;94.15;;;;;;;0.92;100.00;92910.09;4989181;28;20094;-61
2023/04/15 00:20:12;;;;;;;35.20;16.83;;;;;;;0.93;100.00;92916.28;4989331;28;20050;-63
2023/04/15 00:22:39;;;;;;;20.60;8.73;;;;;;;0.90;100.00;92909.69;4988973;28;20132;-62
2023/04/15 00:25:06;;;;;;;10.50;5.63;;;;;;;0.88;100.00;92913.94;4987679;28;20046;-60
2023/04/15 00:27:33;;;;;;;6.50;3.40;;;;;;;0.84;100.00;92910.44;4989178;28;20061;-60
2023/04/15 00:29:59;;;;;;;6.40;3.20;;;;;;;0.75;100.00;92908.84;4989571;28;20050;-63
2023/04/15 00:32:26;;;;;;;6.80;2.93;;;;;;;0.76;100.00;92915.03;4988397;28;20038;-59
2023/04/15 00:34:53;;;;;;;7.47;3.10;;;;;;;0.74;100.00;92914.63;4971809;28;20119;-62
2023/04/15 00:37:20;;;;;;;7.68;3.63;;;;;;;0.73;100.00;92913.09;4988862;28;20053;-61
2023/04/15 00:39:46;;;;;;;7.28;3.50;;;;;;;0.71;100.00;92910.00;4988393;28;20034;-59
2023/04/15 00:42:14;;;;;;;10.48;4.40;;;;;;;0.67;100.00;92904.56;4988742;28;20100;-59
2023/04/15 00:44:41;;;;;;;8.47;3.03;;;;;;;0.68;100.00;92903.41;4988343;28;20400;-60
2023/04/15 00:47:08;;;;;;;6.22;3.05;;;;;;;0.55;100.00;92902.19;4988545;28;20458;-60
2023/04/15 00:49:35;;;;;;;8.88;4.20;;;;;;;0.58;100.00;92901.41;4988565;28;20058;-60
2023/04/15 00:52:02;;;;;;;11.45;5.55;;;;;;;0.58;100.00;92910.31;4987642;28;20050;-58
2023/04/15 00:54:29;;;;;;;8.35;3.67;;;;;;;0.55;100.00;92915.69;4988275;28;20054;-59
2023/04/15 00:56:56;;;;;;;7.43;3.20;;;;;;;0.55;100.00;92908.34;4988743;28;20039;-58
2023/04/15 00:59:23;;;;;;;5.88;3.17;;;;;;;0.53;100.00;92912.59;4986988;28;20046;-60
2023/04/15 01:01:50;;;;;;;7.10;3.83;;;;;;;0.47;100.00;92912.16;4987655;28;20670;-63
2023/04/15 01:04:17;;;;;;;5.95;2.97;;;;;;;0.37;100.00;92908.25;4988220;28;20056;-61
2023/04/15 01:06:44;;;;;;;9.32;4.70;;;;;;;0.39;100.00;92908.63;4987645;28;20065;-59
2023/04/15 01:09:11;;;;;;;6.97;3.13;;;;;;;0.35;100.00;92913.25;4988199;28;20042;-59
2023/04/15 01:11:38;;;;;;;8.43;3.80;;;;;;;0.28;100.00;92907.81;4987787;28;20053;-58
2023/04/15 01:14:06;;;;;;;8.27;3.70;;;;;;;0.22;100.00;92919.31;4986866;28;20030;-59
2023/04/15 01:16:33;;;;;;;6.53;3.70;;;;;;;0.16;100.00;92913.47;4988151;28;20569;-60
2023/04/15 01:19:00;;;;;;;6.63;3.20;;;;;;;0.17;100.00;92915.81;4988586;28;20050;-59
2023/04/15 01:21:28;;;;;;;8.07;3.23;;;;;;;0.19;100.00;92920.84;4988283;28;20074;-61
2023/04/15 01:23:56;;;;;;;6.90;3.00;;;;;;;0.14;100.00;92921.16;4988575;28;20543;-60
2023/04/15 01:26:24;;;;;;;7.20;3.10;;;;;;;0.13;100.00;92916.94;4988590;28;20042;-61
2023/04/15 01:28:50;;;;;;;8.98;5.00;;;;;;;0.09;100.00;92913.44;4979327;28;21649;-59
2023/04/15 01:31:17;;;;;;;15.32;8.38;;;;;;;-0.04;100.00;92919.13;4986705;28;20042;-59
2023/04/15 01:33:45;;;;;;;10.23;5.40;;;;;;;0.01;100.00;92911.84;4986155;28;20979;-59
2023/04/15 01:36:12;;;;;;;10.93;5.63;;;;;;;0.02;100.00;92910.66;4988452;28;20515;-58
2023/04/15 01:38:39;;;;;;;7.55;4.45;;;;;;;-0.04;100.00;92912.94;4986665;28;20043;-60
2023/04/15 01:41:07;;;;;;;7.82;4.15;;;;;;;-0.07;100.00;92911.00;4983794;28;20035;-63
2023/04/15 01:43:36;;;;;;;7.72;3.95;;;;;;;-0.03;100.00;92909.09;4986648;28;20519;-62
2023/04/15 01:46:02;;;;;;;7.47;3.67;;;;;;;-0.05;100.00;92912.16;4988584;28;20046;-61
2023/04/15 01:48:29;;;;;;;9.10;3.60;;;;;;;-0.07;100.00;92902.91;4986366;28;20038;-60
2023/04/15 01:50:56;;;;;;;6.25;3.60;;;;;;;-0.13;100.00;92913.25;4988130;28;20067;-61
2023/04/15 01:53:27;;;;;;;8.82;3.50;;;;;;;-0.13;100.00;92909.78;4984961;28;20597;-59
2023/04/15 01:55:53;;;;;;;6.78;3.42;;;;;;;-0.15;100.00;92910.16;4983852;28;20051;-59
2023/04/15 01:58:20;;;;;;;8.97;4.20;;;;;;;-0.16;100.00;92907.81;4987821;28;20502;-58
2023/04/15 02:00:47;;;;;;;8.55;4.28;;;;;;;-0.21;100.00;92908.94;4987637;28;20057;-59
2023/04/15 02:03:14;;;;;;;7.65;4.05;;;;;;;-0.26;100.00;92914.69;4986998;28;20046;-61
2023/04/15 02:05:41;;;;;;;9.73;3.60;;;;;;;-0.26;100.00;92904.69;4986940;28;20520;-61
2023/04/15 02:08:08;;;;;;;8.45;4.10;;;;;;;-0.24;100.00;92907.78;4987126;28;20096;-61
2023/04/15 02:10:35;;;;;;;8.70;3.50;;;;;;;-0.20;100.00;92902.44;4986904;28;20050;-60
2023/04/15 02:13:01;;;;;;;9.20;3.83;;;;;;;-0.19;100.00;92905.88;4987266;28;20058;-62
2023/04/15 02:15:29;;;;;;;16.63;7.97;;;;;;;-0.22;100.00;92910.88;4987187;28;20069;-60
2023/04/15 02:17:56;;;;;;;8.23;4.22;;;;;;;-0.29;100.00;92904.63;4990606;28;20451;-61
2023/04/15 02:20:23;;;;;;;6.82;3.65;;;;;;;-0.47;100.00;92907.16;4991771;28;20656;-60
2023/04/15 02:22:50;;;;;;;8.93;3.63;;;;;;;-0.54;100.00;92910.56;4983089;28;22115;-59
2023/04/15 02:25:17;;;;;;;6.63;3.47;;;;;;;-0.52;100.00;92915.59;4991779;28;20427;-60
2023/04/15 02:27:43;;;;;;;8.50;3.63;;;;;;;-0.52;100.00;92910.97;4990867;28;20580;-59
2023/04/15 02:30:10;;;;;;;9.73;3.35;;;;;;;-0.47;100.00;92920.66;4990052;28;20040;-66
2023/04/15 02:32:37;;;;;;;7.68;3.83;;;;;;;-0.51;100.00;92917.91;4990761;28;20072;-62
2023/04/15 02:35:05;;;;;;;8.13;3.73;;;;;;;-0.53;100.00;92925.59;4990170;28;20050;-62
2023/04/15 02:37:37;;;;;;;8.88;3.72;;;;;;;-0.52;100.00;92921.00;4978334;28;20038;-62
2023/04/15 02:40:04;;;;;;;8.15;3.55;;;;;;;-0.54;100.00;92918.66;4991562;28;20113;-63
2023/04/15 02:42:31;;;;;;;7.47;3.80;;;;;;;-0.56;100.00;92918.25;4983286;28;20050;-60
2023/04/15 02:44:58;;;;;;;12.30;4.18;;;;;;;-0.52;100.00;92923.69;4991796;28;20058;-62
2023/04/15 02:47:24;;;;;;;8.53;4.00;;;;;;;-0.55;100.00;92919.78;4991158;28;20510;-59
2023/04/15 02:49:51;;;;;;;8.77;3.85;;;;;;;-0.59;100.00;92910.91;4991012;28;20048;-58
2023/04/15 02:52:18;;;;;;;7.75;4.03;;;;;;;-0.61;100.00;92921.28;4990539;28;20077;-59
2023/04/15 02:54:45;;;;;;;6.97;3.55;;;;;;;-0.63;100.00;92913.53;4989369;28;20065;-59
2023/04/15 02:57:11;;;;;;;10.43;4.03;;;;;;;-0.70;100.00;92923.50;4989971;28;20531;-61
2023/04/15 02:59:38;;;;;;;7.57;3.67;;;;;;;-0.73;100.00;92913.44;4989558;28;20050;-61
2023/04/15 03:02:06;;;;;;;7.45;3.90;;;;;;;-0.68;100.00;92915.81;4989784;28;20078;-59
2023/04/15 03:04:33;;;;;;;10.05;5.45;;;;;;;-0.67;100.00;92914.66;4991059;28;20051;-59
2023/04/15 03:07:00;;;;;;;9.88;5.10;;;;;;;-0.68;100.00;92921.97;4989928;28;20498;-59
2023/04/15 03:09:27;;;;;;;9.05;4.65;;;;;;;-0.61;100.00;92922.03;4989898;28;20038;-58
2023/04/15 03:11:54;;;;;;;10.47;4.20;;;;;;;-0.61;100.00;92922.03;4990342;28;20050;-59
2023/04/15 03:14:21;;;;;;;7.75;4.05;;;;;;;-0.63;100.00;92915.47;4989727;28;20422;-62
2023/04/15 03:16:49;;;;;;;8.20;4.32;;;;;;;-0.69;100.00;92920.41;4990555;28;20050;-63
2023/04/15 03:19:16;;;;;;;7.25;4.07;;;;;;;-0.66;100.00;92921.63;4990798;28;20161;-60
2023/04/15 03:21:42;;;;;;;9.63;4.47;;;;;;;-0.74;100.00;92920.75;4989015;28;20038;-58
2023/04/15 03:24:09;;;;;;;8.60;5.10;;;;;;;-0.95;100.00;92920.50;4990823;28;20049;-59
2023/04/15 03:26:36;;;;;;;10.07;4.43;;;;;;;-0.99;100.00;92920.47;4990320;28;20139;-62
2023/04/15 03:29:02;;;;;;;8.18;4.40;;;;;;;-0.89;100.00;92922.50;4989790;28;20043;-62
2023/04/15 03:31:29;;;;;;;7.43;4.05;;;;;;;-0.87;100.00;92925.59;4989763;28;20088;-59
2023/04/15 03:33:56;;;;;;;9.68;4.28;;;;;;;-0.85;100.00;92920.63;4988879;28;20108;-60
2023/04/15 03:36:23;;;;;;;9.57;4.37;;;;;;;-0.88;100.00;92924.06;4990643;28;20062;-59
2023/04/15 03:38:49;;;;;;;6.70;3.80;;;;;;;-0.93;100.00;92915.53;4987676;28;20528;-59
2023/04/15 03:41:16;;;;;;;8.38;4.13;;;;;;;-1.12;100.00;92916.47;4989970;28;20052;-62
2023/04/15 03:43:43;;;;;;;22.80;10.55;;;;;;;-1.01;100.00;92910.06;4988933;28;20128;-61
2023/04/15 03:46:09;;;;;;;14.65;6.85;;;;;;;-0.97;100.00;92912.78;4990590;28;20459;-60
2023/04/15 03:48:36;;;;;;;9.10;4.23;;;;;;;-0.97;100.00;92910.09;4989595;28;20058;-58
2023/04/15 03:51:03;;;;;;;7.75;3.80;;;;;;;-0.96;100.00;92908.97;4988534;28;20054;-61
2023/04/15 03:53:29;;;;;;;7.55;3.60;;;;;;;-0.99;100.00;92908.91;4987303;28;20054;-61
2023/04/15 03:55:56;;;;;;;8.43;3.60;;;;;;;-0.97;100.00;92914.72;4990089;28;20077;-62
2023/04/15 03:58:23;;;;;;;7.10;3.97;;;;;;;-1.01;100.00;92911.97;4990258;28;20100;-58
2023/04/15 04:00:50;;;;;;;8.33;3.60;;;;;;;-1.03;100.00;92912.38;4989329;28;20057;-59
2023/04/15 04:03:16;;;;;;;6.65;3.42;;;;;;;-0.97;100.00;92914.72;4989674;28;20049;-65
2023/04/15 04:05:43;;;;;;;9.20;3.75;;;;;;;-0.99;100.00;92917.00;4988929;28;20054;-61
2023/04/15 04:08:12;;;;;;;8.55;3.60;;;;;;;-1.02;100.00;92919.28;4989836;28;20038;-61
2023/04/15 04:10:39;;;;;;;7.68;3.90;;;;;;;-0.98;100.00;92929.34;4988843;28;20388;-58
2023/04/15 04:13:06;;;;;;;9.87;5.87;;;;;;;-1.02;100.00;92919.28;4989752;28;20056;-61
2023/04/15 04:15:33;;;;;;;10.55;4.97;;;;;;;-1.07;100.00;92922.28;4988201;28;20054;-60
2023/04/15 04:18:00;;;;;;;8.82;4.28;;;;;;;-1.08;100.00;92926.13;4989922;28;20050;-58
2023/04/15 04:20:26;;;;;;;8.73;4.18;;;;;;;-1.05;100.00;92921.94;4988451;28;20038;-60
2023/04/15 04:22:53;;;;;;;10.73;4.20;;;;;;;-1.03;100.00;92927.72;4989519;28;20034;-62
2023/04/15 04:25:20;;;;;;;9.03;3.83;;;;;;;-0.98;100.00;92921.25;4989057;28;20046;-60
2023/04/15 04:27:46;;;;;;;9.27;4.28;;;;;;;-0.92;100.00;92919.78;4988881;28;20043;-60
2023/04/15 04:30:13;;;;;;;8.60;4.63;;;;;;;-0.84;100.00;92922.19;4987828;28;20049;-58
2023/04/15 04:32:40;;;;;;;10.07;4.30;;;;;;;-0.74;100.00;92920.00;4988181;28;20112;-59
2023/04/15 04:35:07;;;;;;;7.43;4.05;;;;;;;-0.64;100.00;92919.31;4988404;28;20043;-62
2023/04/15 04:37:34;;;;;;;9.93;4.90;;;;;;;-0.63;100.00;92927.03;4989157;28;20402;-60
2023/04/15 04:40:00;;;;;;;8.40;4.55;;;;;;;-0.55;100.00;92921.72;4988329;28;20057;-62
2023/04/15 04:42:27;;;;;;;10.88;5.50;;;;;;;-0.45;100.00;92924.50;4971443;28;20049;-62
2023/04/15 04:44:54;;;;;;;9.50;5.22;;;;;;;-0.42;100.00;92923.78;4984584;28;20107;-60
2023/04/15 04:47:21;;;;;;;9.13;5.03;;;;;;;-0.36;100.00;92921.53;4988076;28;20391;-64
2023/04/15 04:49:47;;;;;;;9.17;4.60;;;;;;;-0.37;100.00;92928.06;4987596;28;20289;-62
2023/04/15 04:52:14;;;;;;;8.38;4.57;;;;;;;-0.32;100.00;92925.03;4989305;28;20458;-62
2023/04/15 04:54:41;;;;;;;9.38;4.22;;;;;;;-0.20;100.00;92915.91;4978459;28;20403;-61
2023/04/15 04:57:08;;;;;;;8.02;4.53;;;;;;;-0.07;100.00;92927.19;4969632;28;20054;-59
2023/04/15 04:59:34;;;;;;;7.78;4.05;;;;;;;-0.01;100.00;92915.66;4968885;28;20054;-60
2023/04/15 05:02:02;;;;;;;7.67;3.97;;;;;;;0.12;100.00;92926.16;4984327;28;20069;-61
2023/04/15 05:04:30;;;;;;;9.05;4.00;;;;;;;-0.08;100.00;92918.31;4988570;28;20044;-61
2023/04/15 05:06:58;;;;;;;8.32;4.20;;;;;;;0.01;100.00;92920.69;4988794;28;20092;-67
2023/04/15 05:09:24;;;;;;;8.73;4.40;;;;;;;0.11;100.00;92924.63;4987959;28;20042;-60
2023/04/15 05:11:51;;;;;;;8.82;4.68;;;;;;;0.16;100.00;92926.97;4988604;28;20475;-61
2023/04/15 05:14:18;;;;;;;10.30;5.83;;;;;;;0.19;100.00;92920.84;4987686;28;20056;-60
2023/04/15 05:16:44;;;;;;;12.52;6.72;;;;;;;0.24;100.00;92917.00;4988334;28;20054;-60
2023/04/15 05:19:11;;;;;;;11.43;5.88;;;;;;;0.33;100.00;92912.06;4988860;28;20058;-62
2023/04/15 05:21:38;;;;;;;9.60;5.07;;;;;;;0.29;100.00;92917.44;4987749;28;20043;-60
2023/04/15 05:24:05;;;;;;;12.10;5.40;;;;;;;0.30;100.00;92912.81;4988194;28;20042;-60
2023/04/15 05:26:32;;;;;;;12.70;5.37;;;;;;;0.23;100.00;92916.25;4987828;28;20056;-60
2023/04/15 05:28:59;;;;;;;13.85;5.85;;;;;;;0.38;100.00;92912.50;4988469;28;20038;-60
2023/04/15 05:31:26;;;;;;;12.15;5.95;;;;;;;0.59;100.00;92911.09;4987550;28;20402;-63
2023/04/15 05:33:52;;;;;;;16.75;5.68;;;;;;;0.86;100.00;92905.44;4987450;28;20054;-61
2023/04/15 05:36:20;;;;;;;10.75;5.63;;;;;;;0.97;100.00;92911.66;4987379;28;20081;-59
2023/04/15 05:38:46;;;;;;;12.30;5.83;;;;;;;0.96;100.00;92912.81;4988318;28;20046;-62
2023/04/15 05:41:14;;;;;;;15.68;5.85;;;;;;;1.28;100.00;92918.34;4987974;28;20049;-59
2023/04/15 05:43:45;;;;;;;13.70;6.38;;;;;;;1.34;100.00;92916.81;4985484;28;20053;-61
2023/04/15 05:46:12;;;;;;;11.25;5.88;;;;;;;1.11;100.00;92911.72;4988102;28;20407;-61
2023/04/15 05:48:38;;;;;;;15.73;6.82;;;;;;;1.05;100.00;92912.44;4987529;28;20179;-58
2023/04/15 05:51:05;;;;;;;14.47;6.90;;;;;;;1.10;100.00;92917.50;4987006;28;20043;-60
2023/04/15 05:53:32;;;;;;;16.25;8.02;;;;;;;1.08;100.00;92922.50;4990709;28;20072;-65
2023/04/15 05:55:58;;;;;;;18.02;8.70;;;;;;;0.93;100.00;92929.78;4992447;28;20044;-61
2023/04/15 05:58:25;;;;;;;14.85;6.80;;;;;;;0.90;100.00;92927.81;4992140;28;20092;-59
2023/04/15 06:00:52;;;;;;;14.77;6.50;;;;;;;0.97;100.00;92919.78;4992193;28;20048;-60
2023/04/15 06:03:19;;;;;;;12.93;6.10;;;;;;;1.19;100.00;92923.34;4991815;28;20049;-59
2023/04/15 06:05:46;;;;;;;11.93;5.68;;;;;;;1.03;100.00;92926.34;4991417;28;20054;-63
2023/04/15 06:08:12;;;;;;;12.05;5.93;;;;;;;1.06;100.00;92927.53;4991800;28;20536;-62
2023/04/15 06:10:39;;;;;;;13.07;6.22;;;;;;;0.93;100.00;92927.84;5005682;28;20058;-61
2023/04/15 06:13:06;;;;;;;13.63;6.63;;;;;;;1.09;100.00;92919.44;4991974;28;20048;-60
2023/04/15 06:15:33;;;;;;;11.50;5.77;;;;;;;1.34;100.00;92924.16;4990781;28;20104;-59
2023/04/15 06:18:00;;;;;;;27.65;12.30;;;;;;;1.45;100.00;92916.06;4990796;28;20046;-59
2023/04/15 06:20:27;;;;;;;30.83;12.93;;;;;;;1.73;100.00;92916.16;4990975;28;20544;-61
2023/04/15 06:22:54;;;;;;;104.40;36.38;;;;;;;1.83;100.00;92916.53;4991819;28;20046;-63
2023/04/15 06:25:21;;;;;;;82.13;33.35;;;;;;;2.08;100.00;92916.56;4991682;28;20123;-62
2023/04/15 06:27:47;;;;;;;25.10;10.57;;;;;;;2.16;100.00;92916.19;4991140;28;20076;-60
2023/04/15 06:30:14;;;;;;;26.05;11.70;;;;;;;2.30;100.00;92917.34;4991507;28;20038;-60
2023/04/15 06:32:41;;;;;;;14.20;6.35;;;;;;;2.19;100.00;92917.34;4984816;28;20058;-63
2023/04/15 06:35:08;;;;;;;12.60;6.05;;;;;;;2.37;100.00;92918.13;4979226;28;20579;-61
2023/04/15 06:37:35;;;;;;;18.20;10.00;;;;;;;2.69;100.00;92911.88;4985975;28;20076;-65
2023/04/15 06:40:03;;;;;;;12.93;6.50;;;;;;;3.28;100.00;92913.25;4989504;28;20402;-64
2023/04/15 06:42:31;;;;;;;13.77;6.95;;;;;;;3.52;100.00;92917.03;4988165;28;20034;-63
2023/04/15 06:44:57;;;;;;;12.75;7.13;;;;;;;4.27;100.00;92910.38;4988557;28;20053;-60
2023/04/15 06:47:25;;;;;;;14.02;5.90;;;;;;;4.30;100.00;92912.28;4988145;28;20042;-57
2023/04/15 06:49:51;;;;;;;15.23;8.27;;;;;;;5.03;100.00;92913.16;4989684;28;20418;-60
2023/04/15 06:52:18;;;;;;;15.10;7.00;;;;;;;6.66;100.00;92914.13;4988702;28;20676;-64
2023/04/15 06:54:45;;;;;;;14.02;6.28;;;;;;;8.89;92.98;92907.56;4987916;28;20046;-60
2023/04/15 06:57:12;;;;;;;13.50;7.00;;;;;;;9.17;80.29;92900.59;4986005;28;20104;-59
2023/04/15 06:59:38;;;;;;;13.65;7.88;;;;;;;9.95;79.32;92899.63;4987387;28;20056;-58
2023/04/15 07:02:08;;;;;;;9.15;5.18;;;;;;;10.93;68.08;92906.44;4988737;28;20426;-59
2023/04/15 07:04:34;;;;;;;11.67;5.80;;;;;;;12.26;60.59;92901.78;4984439;28;20056;-58
2023/04/15 07:07:01;;;;;;;9.85;6.22;;;;;;;11.91;59.40;92912.13;4987295;28;20773;-58
2023/04/15 07:09:28;;;;;;;12.82;8.75;;;;;;;12.99;55.92;92898.50;4987279;28;20116;-58
2023/04/15 07:11:55;;;;;;;11.10;6.82;;;;;;;12.50;57.65;92898.53;4987978;28;20061;-60
2023/04/15 07:14:21;;;;;;;12.00;7.38;;;;;;;13.32;54.67;92899.97;4986611;28;20046;-58
2023/04/15 07:16:48;;;;;;;13.23;8.17;;;;;;;13.97;52.98;92890.44;4983891;28;20046;-58
2023/04/15 07:19:15;;;;;;;15.20;8.90;;;;;;;15.50;48.99;92889.16;4983454;28;20042;-58
2023/04/15 07:21:42;;;;;;;14.52;9.02;;;;;;;17.75;42.35;92886.41;4983219;28;20199;-58
2023/04/15 07:24:09;;;;;;;11.27;6.80;;;;;;;19.63;38.47;92879.06;4985309;28;20172;-58
2023/04/15 07:26:36;;;;;;;12.27;6.10;;;;;;;19.12;37.96;92876.03;4983560;28;20487;-59
2023/04/15 07:29:02;;;;;;;9.60;5.87;;;;;;;19.56;36.11;92876.78;4984727;28;20065;-58
2023/04/15 07:31:30;;;;;;;10.18;5.50;;;;;;;18.25;38.37;92879.88;4985138;28;20045;-59
2023/04/15 07:33:57;;;;;;;12.40;7.70;;;;;;;16.90;41.16;92881.78;4985999;28;20056;-60
2023/04/15 07:36:24;;;;;;;9.65;5.85;;;;;;;15.67;43.49;92886.69;4986326;28;20513;-60
2023/04/15 07:38:51;;;;;;;11.13;7.15;;;;;;;14.86;46.41;92882.03;4984087;28;21678;-58
2023/04/15 07:41:18;;;;;;;11.00;7.40;;;;;;;14.55;48.33;92885.84;4985983;28;20426;-59
2023/04/15 07:43:44;;;;;;;10.55;7.10;;;;;;;14.04;49.28;92886.59;4982358;28;20480;-58
2023/04/15 07:46:11;;;;;;;13.95;7.88;;;;;;;13.56;51.02;92881.63;4985658;28;20479;-56
2023/04/15 07:48:38;;;;;;;12.50;7.45;;;;;;;13.52;51.58;92883.75;4979831;28;20046;-57
2023/04/15 07:51:05;;;;;;;12.93;6.63;;;;;;;14.46;48.92;92888.63;4981788;28;20043;-58
2023/04/15 07:53:32;;;;;;;10.37;5.70;;;;;;;14.96;46.27;92893.81;4986598;28;20414;-60
2023/04/15 07:55:59;;;;;;;13.65;6.70;;;;;;;16.82;43.04;92888.97;4984387;28;20050;-59
2023/04/15 07:58:26;;;;;;;13.85;5.10;;;;;;;18.50;38.06;92883.88;4982438;28;20042;-59
2023/04/15 08:00:54;;;;;;;9.77;4.32;;;;;;;18.14;37.18;92883.31;4983242;28;20038;-57
2023/04/15 08:03:21;;;;;;;12.25;6.35;;;;;;;18.90;37.21;92885.00;4984558;28;20479;-58
2023/04/15 08:05:48;;;;;;;8.63;5.03;;;;;;;16.51;39.40;92889.47;4981137;28;20053;-58
2023/04/15 08:08:15;;;;;;;7.85;4.32;;;;;;;15.56;41.47;92886.50;4981370;28;20035;-59
2023/04/15 08:10:42;;;;;;;9.88;5.53;;;;;;;15.49;41.12;92884.88;4972566;28;20063;-59
2023/04/15 08:13:09;;;;;;;9.85;6.45;;;;;;;15.03;42.37;92885.19;4970942;28;20419;-60
2023/04/15 08:15:36;;;;;;;12.85;7.35;;;;;;;14.44;44.46;92877.28;4988615;28;20046;-60
2023/04/15 08:18:02;;;;;;;6.30;2.97;;;;;;;13.87;42.37;92886.16;4989571;28;20038;-61
2023/04/15 08:20:29;;;;;;;5.30;2.92;;;;;;;13.33;42.50;92888.47;4988403;28;20115;-59
2023/04/15 08:22:57;;;;;;;6.30;3.55;;;;;;;13.77;42.50;92885.41;4989910;28;20495;-61
2023/04/15 08:25:24;;;;;;;6.95;3.05;;;;;;;14.36;40.67;92885.13;4989773;28;20042;-62
2023/04/15 08:27:51;;;;;;;7.70;3.80;;;;;;;14.42;40.68;92890.03;4987982;28;20528;-62
2023/04/15 08:30:18;;;;;;;7.77;3.50;;;;;;;15.11;40.60;92888.34;4989272;28;20054;-61
2023/04/15 08:32:45;;;;;;;6.30;2.80;;;;;;;14.57;41.06;92882.66;4988699;28;20410;-60
2023/04/15 08:35:12;;;;;;;5.00;2.90;;;;;;;13.82;41.40;92883.25;4987903;28;20058;-60
2023/04/15 08:37:39;;;;;;;6.15;2.10;;;;;;;14.47;39.71;92892.16;4976495;28;20042;-61
2023/04/15 08:40:08;;;;;;;4.63;1.85;;;;;;;14.71;38.91;92889.50;4989306;28;20046;-60
2023/04/15 08:42:38;;;;;;;5.33;2.90;;;;;;;14.93;38.13;92887.22;4980584;28;20072;-60
2023/04/15 08:45:08;;;;;;;5.72;2.13;;;;;;;14.65;37.72;92881.06;4989726;28;20151;-60
2023/04/15 08:47:37;;;;;;;4.97;1.73;;;;;;;15.24;37.72;92883.34;4988716;28;20049;-59
2023/04/15 08:50:07;;;;;;;4.68;1.88;;;;;;;15.37;35.40;92886.66;4988785;28;20438;-60
2023/04/15 08:52:35;;;;;;;4.72;2.03;;;;;;;16.55;33.90;92881.72;4988231;28;20050;-61
2023/04/15 08:55:02;;;;;;;4.00;1.50;;;;;;;17.96;32.78;92880.84;4987435;28;20053;-62
2023/04/15 08:57:30;;;;;;;6.32;3.30;;;;;;;15.78;33.73;92881.41;4988491;28;20049;-63
2023/04/15 08:59:57;;;;;;;5.78;1.88;;;;;;;15.74;33.39;92883.63;4989427;28;20073;-60
2023/04/15 09:02:26;;;;;;;4.18;1.63;;;;;;;15.81;33.83;92882.47;4989009;28;20111;-61
2023/04/15 09:04:53;;;;;;;4.82;1.55;;;;;;;16.15;33.60;92889.38;4988451;28;21705;-60
2023/04/15 09:07:20;;;;;;;4.70;1.80;;;;;;;14.19;36.13;92883.97;4988554;28;20614;-60
2023/04/15 09:09:47;;;;;;;4.55;1.67;;;;;;;14.90;35.96;92888.16;4987732;28;20050;-60
2023/04/15 09:12:15;;;;;;;6.45;2.70;;;;;;;15.01;36.02;92890.41;4987416;28;20050;-60
2023/04/15 09:14:45;;;;;;;5.82;2.20;;;;;;;14.73;37.11;92889.78;4986542;28;20058;-61
2023/04/15 09:17:11;;;;;;;6.85;2.50;;;;;;;14.72;36.47;92893.78;4988742;28;20050;-62
2023/04/15 09:19:38;;;;;;;7.10;3.63;;;;;;;14.26;37.35;92889.13;4988398;28;20203;-61
2023/04/15 09:22:05;;;;;;;5.03;1.77;;;;;;;13.70;37.54;92898.75;4989018;28;20414;-59
2023/04/15 09:24:38;;;;;;;5.18;1.70;;;;;;;14.23;37.12;92894.84;4987094;28;20035;-61
2023/04/15 09:27:05;;;;;;;5.90;3.67;;;;;;;13.99;36.75;92903.78;4988209;28;20038;-61
2023/04/15 09:29:32;;;;;;;5.45;2.50;;;;;;;14.11;37.37;92899.31;4987775;28;20061;-61
2023/04/15 09:32:13;;;;;;;3.77;1.60;;;;;;;14.46;36.08;92901.66;4987841;28;20046;-61
2023/04/15 09:34:40;;;;;;;4.95;1.50;;;;;;;14.53;35.95;92901.34;4986444;28;20430;-60
2023/04/15 09:37:09;;;;;;;4.30;1.58;;;;;;;13.94;36.96;92905.16;4988365;28;20067;-60
2023/04/15 09:39:50;;;;;;;12.45;1.95;;;;;;;14.06;37.39;92911.72;4987863;28;20050;-63
2023/04/15 09:42:23;;;;;;;5.65;1.70;;;;;;;14.71;35.22;92904.06;4985964;28;20064;-60
2023/04/15 09:44:51;;;;;;;5.53;2.47;;;;;;;14.60;35.29;92909.31;4987953;28;20365;-60
2023/04/15 09:47:31;;;;;;;4.78;1.80;;;;;;;14.60;35.50;92912.06;4988821;28;20096;-61
2023/04/15 09:50:00;;;;;;;5.45;2.97;;;;;;;15.52;34.36;92914.31;4987479;28;21000;-60
2023/04/15 09:52:27;;;;;;;5.10;2.58;;;;;;;16.06;34.37;92919.16;4987938;28;20039;-61
2023/04/15 09:54:57;;;;;;;5.18;1.80;;;;;;;14.91;35.40;92913.75;4986782;28;20050;-60
2023/04/15 09:57:24;;;;;;;5.17;1.90;;;;;;;15.99;33.68;92909.22;4988489;28;20452;-60
2023/04/15 09:59:51;;;;;;;9.40;2.10;;;;;;;15.82;34.27;92908.91;4979721;28;20858;-61
2023/04/15 10:02:21;;;;;;;5.65;1.83;;;;;;;16.25;33.73;92908.66;4988379;28;20054;-60
2023/04/15 10:04:49;;;;;;;4.38;1.73;;;;;;;15.34;34.74;92917.97;4988356;28;20373;-63
2023/04/15 10:07:19;;;;;;;4.25;1.75;;;;;;;15.80;34.31;92916.16;4988363;28;20038;-60
2023/04/15 10:09:48;;;;;;;4.30;1.90;;;;;;;15.60;35.40;92913.97;4987395;28;20047;-60
2023/04/15 10:12:18;;;;;;;4.00;2.00;;;;;;;17.12;33.40;92911.06;4988366;28;20057;-61
2023/04/15 10:14:55;;;;;;;4.82;2.00;;;;;;;18.41;31.18;92911.06;4986363;28;20046;-60
2023/04/15 10:17:26;;;;;;;4.22;2.00;;;;;;;13.95;36.62;92917.72;4988309;28;20124;-60
2023/04/15 10:19:55;;;;;;;4.88;2.10;;;;;;;14.12;37.41;92922.91;4987332;28;21778;-60
2023/04/15 10:22:22;;;;;;;8.57;2.40;;;;;;;14.92;35.73;92912.53;4988117;28;20100;-62
2023/04/15 10:24:49;;;;;;;5.10;2.10;;;;;;;14.55;35.28;92915.44;4987785;28;20100;-61
2023/04/15 10:27:17;;;;;;;5.60;2.22;;;;;;;13.39;37.47;92914.19;4988230;28;20203;-61
2023/04/15 10:29:44;;;;;;;5.05;1.83;;;;;;;14.12;36.71;92918.16;4987446;28;20046;-60
2023/04/15 10:32:11;;;;;;;4.55;2.08;;;;;;;13.84;36.99;92925.69;4988139;28;20479;-60
2023/04/15 10:34:39;;;;;;;5.03;1.97;;;;;;;13.66;37.43;92923.72;4986007;28;20047;-60
2023/04/15 10:37:09;;;;;;;6.03;2.40;;;;;;;13.07;38.73;92925.78;4987895;28;20403;-59
2023/04/15 10:39:36;;;;;;;5.80;2.00;;;;;;;12.91;38.28;92932.31;4989445;28;20042;-60
2023/04/15 10:42:20;;;;;;;4.75;1.90;;;;;;;12.79;38.24;92929.19;4989781;28;20050;-59
2023/04/15 10:44:55;;;;;;;6.82;2.08;;;;;;;13.04;38.47;92930.22;4991252;28;20042;-61
2023/04/15 10:47:22;;;;;;;7.13;2.60;;;;;;;13.37;38.04;92933.19;4991380;28;20373;-60
2023/04/15 10:49:55;;;;;;;6.15;2.15;;;;;;;13.06;39.24;92933.28;4989866;28;20756;-60
2023/04/15 10:52:27;;;;;;;6.95;2.40;;;;;;;13.27;39.04;92937.13;4991167;28;20045;-60
2023/04/15 10:55:13;;;;;;;4.95;2.10;;;;;;;13.34;38.18;92936.09;4989270;28;20835;-59
2023/04/15 10:57:42;;;;;;;7.78;3.20;;;;;;;13.34;38.26;92942.38;4990968;28;20049;-61
2023/04/15 11:00:11;;;;;;;6.20;2.20;;;;;;;13.21;38.10;92941.72;4990671;28;20048;-59
2023/04/15 11:02:42;;;;;;;6.28;2.33;;;;;;;13.25;37.73;92933.31;4990716;28;20388;-60
2023/04/15 11:05:11;;;;;;;8.45;2.63;;;;;;;12.90;39.35;92941.78;4990867;28;20051;-60
2023/04/15 11:07:45;;;;;;;5.88;2.40;;;;;;;13.83;38.26;92939.97;4990193;28;20042;-61
2023/04/15 11:10:24;;;;;;;5.28;2.10;;;;;;;14.20;37.55;92946.19;4990273;28;20050;-59
2023/04/15 11:12:53;;;;;;;8.37;2.40;;;;;;;14.27;37.33;92942.38;4989294;28;20688;-61
2023/04/15 11:15:30;;;;;;;4.93;2.03;;;;;;;13.20;39.55;92940.19;4989878;28;20042;-60
2023/04/15 11:18:17;;;;;;;6.38;2.40;;;;;;;14.46;38.53;92945.84;4989980;28;22072;-60
2023/04/15 11:20:49;;;;;;;7.03;3.42;;;;;;;14.46;37.66;92954.13;4989774;28;20046;-60
2023/04/15 11:23:28;;;;;;;5.82;2.00;;;;;;;14.57;37.86;92948.91;4990405;28;20152;-60
2023/04/15 11:25:59;;;;;;;14.10;6.30;;;;;;;14.47;38.63;92952.91;4989662;28;21658;-60
2023/04/15 11:28:28;;;;;;;10.48;5.60;;;;;;;14.28;39.23;92955.69;4990326;28;20035;-60
2023/04/15 11:30:55;;;;;;;5.95;3.03;;;;;;;14.22;38.43;92957.53;4990337;28;20054;-60